createdAt,value
2024-01-16T00:00:59.577Z,3.80
2024-01-16T00:03:26.945Z,3.80
2024-01-16T00:05:53.962Z,3.80
2024-01-16T00:08:20.786Z,3.80
2024-01-16T00:10:47.647Z,3.80
2024-01-16T00:13:15.091Z,3.80
2024-01-16T00:15:42.773Z,3.80
2024-01-16T00:18:10.102Z,3.80
2024-01-16T00:20:37.155Z,3.80
2024-01-16T00:23:04.396Z,3.70
2024-01-16T00:25:31.734Z,3.70
2024-01-16T00:27:58.559Z,3.70
2024-01-16T00:30:25.393Z,3.70
2024-01-16T00:32:52.932Z,3.60
2024-01-16T00:35:20.164Z,3.60
2024-01-16T00:37:47.098Z,3.60
2024-01-16T00:40:14.412Z,3.60
2024-01-16T00:42:41.419Z,3.60
2024-01-16T00:45:08.509Z,3.60
2024-01-16T00:47:35.584Z,3.60
2024-01-16T00:50:03.309Z,3.60
2024-01-16T00:52:30.591Z,3.60
2024-01-16T00:54:57.464Z,3.60
2024-01-16T00:57:24.306Z,3.60
2024-01-16T00:59:51.175Z,3.60
2024-01-16T01:02:18.098Z,3.60
2024-01-16T01:04:45.097Z,3.60
2024-01-16T01:07:15.282Z,3.60
2024-01-16T01:09:42.329Z,3.60
2024-01-16T01:12:09.814Z,3.70
2024-01-16T01:14:36.748Z,3.60
2024-01-16T01:17:03.892Z,3.70
2024-01-16T01:19:30.862Z,3.70
2024-01-16T01:21:57.688Z,3.70
2024-01-16T01:24:24.512Z,3.70
2024-01-16T01:26:51.424Z,3.70
2024-01-16T01:29:18.485Z,3.70
2024-01-16T01:31:49.030Z,3.70
2024-01-16T01:34:17.223Z,3.70
2024-01-16T01:36:44.507Z,3.70
2024-01-16T01:39:12.251Z,3.70
2024-01-16T01:41:40.234Z,3.70
2024-01-16T01:44:07.553Z,3.70
2024-01-16T01:46:36.761Z,3.70
2024-01-16T01:49:04.722Z,3.70
2024-01-16T01:51:32.040Z,3.70
2024-01-16T01:53:59.755Z,3.70
2024-01-16T01:56:27.320Z,3.70
2024-01-16T01:58:59.607Z,3.70
2024-01-16T02:01:29.029Z,3.70
2024-01-16T02:03:57.770Z,3.70
2024-01-16T02:06:24.728Z,3.70
2024-01-16T02:08:52.381Z,3.70
2024-01-16T02:11:19.253Z,3.70
2024-01-16T02:13:46.588Z,3.70
2024-01-16T02:16:21.063Z,3.70
2024-01-16T02:18:48.579Z,3.70
2024-01-16T02:21:22.711Z,3.70
2024-01-16T02:23:49.809Z,3.70
2024-01-16T02:26:18.242Z,3.70
2024-01-16T02:28:45.155Z,3.70
2024-01-16T02:31:12.352Z,3.70
2024-01-16T02:33:39.538Z,3.70
2024-01-16T02:36:06.761Z,3.70
2024-01-16T02:38:33.894Z,3.70
2024-01-16T02:41:01.289Z,3.70
2024-01-16T02:43:28.534Z,3.70
2024-01-16T02:45:55.444Z,3.70
2024-01-16T02:48:22.437Z,3.70
2024-01-16T02:50:49.496Z,3.70
2024-01-16T02:53:16.743Z,3.70
2024-01-16T02:55:43.692Z,3.70
2024-01-16T02:58:11.020Z,3.70
2024-01-16T03:00:38.421Z,3.70
2024-01-16T03:03:05.998Z,3.70
2024-01-16T03:05:32.999Z,3.70
2024-01-16T03:08:00.129Z,3.70
2024-01-16T03:10:27.279Z,3.70
2024-01-16T03:12:54.131Z,3.70
2024-01-16T03:15:21.337Z,3.70
2024-01-16T03:17:49.300Z,3.70
2024-01-16T03:20:17.482Z,3.70
2024-01-16T03:22:45.295Z,3.70
2024-01-16T03:25:13.252Z,3.70
2024-01-16T03:27:40.137Z,3.60
2024-01-16T03:30:07.953Z,3.60
2024-01-16T03:32:36.424Z,3.60
2024-01-16T03:35:03.516Z,3.60
2024-01-16T03:37:30.588Z,3.60
2024-01-16T03:39:58.103Z,3.60
2024-01-16T03:42:25.271Z,3.60
2024-01-16T03:44:52.749Z,3.60
2024-01-16T03:47:19.910Z,3.60
2024-01-16T03:49:47.530Z,3.60
2024-01-16T03:52:14.379Z,3.60
2024-01-16T03:54:41.276Z,3.60
2024-01-16T03:57:08.109Z,3.60
2024-01-16T03:59:38.565Z,3.60
2024-01-16T04:02:05.517Z,3.60
2024-01-16T04:04:32.339Z,3.60
2024-01-16T04:06:59.233Z,3.60
2024-01-16T04:09:26.120Z,3.60
2024-01-16T04:11:53.118Z,3.60
2024-01-16T04:14:20.032Z,3.60
2024-01-16T04:16:47.035Z,3.60
2024-01-16T04:19:13.999Z,3.60
2024-01-16T04:21:40.870Z,3.60
2024-01-16T04:24:08.352Z,3.60
2024-01-16T04:26:38.502Z,3.60
2024-01-16T04:29:06.128Z,3.60
2024-01-16T04:31:40.207Z,3.60
2024-01-16T04:34:07.315Z,3.60
2024-01-16T04:36:34.194Z,3.60
2024-01-16T04:39:01.464Z,3.60
2024-01-16T04:41:28.752Z,3.60
2024-01-16T04:43:55.576Z,3.60
2024-01-16T04:46:22.370Z,3.60
2024-01-16T04:48:49.304Z,3.70
2024-01-16T04:51:16.196Z,3.70
2024-01-16T04:53:43.057Z,3.70
2024-01-16T04:56:09.934Z,3.60
2024-01-16T04:58:37.073Z,3.70
2024-01-16T05:01:04.009Z,3.70
2024-01-16T05:03:30.932Z,3.70
2024-01-16T05:05:58.062Z,3.70
2024-01-16T05:08:25.425Z,3.70
2024-01-16T05:10:52.423Z,3.70
2024-01-16T05:13:19.395Z,3.70
2024-01-16T05:15:46.419Z,3.70
2024-01-16T05:18:13.464Z,3.70
2024-01-16T05:20:41.353Z,3.70
2024-01-16T05:23:08.340Z,3.70
2024-01-16T05:25:35.226Z,3.70
2024-01-16T05:28:02.028Z,3.70
2024-01-16T05:30:28.967Z,3.70
2024-01-16T05:32:56.309Z,3.70
2024-01-16T05:35:25.789Z,3.70
2024-01-16T05:37:52.873Z,3.70
2024-01-16T05:40:19.674Z,3.60
2024-01-16T05:42:46.622Z,3.60
2024-01-16T05:45:14.771Z,3.60
2024-01-16T05:47:41.685Z,3.60
2024-01-16T05:50:10.029Z,3.60
2024-01-16T05:52:37.145Z,3.60
2024-01-16T05:55:06.065Z,3.60
2024-01-16T05:57:34.512Z,3.60
2024-01-16T06:00:04.670Z,3.60
2024-01-16T06:02:33.105Z,3.50
2024-01-16T06:05:00.037Z,3.50
2024-01-16T06:07:26.952Z,3.50
2024-01-16T06:09:54.059Z,3.50
2024-01-16T06:12:21.355Z,3.50
2024-01-16T06:14:48.280Z,3.50
2024-01-16T06:17:15.259Z,3.50
2024-01-16T06:19:42.090Z,3.40
2024-01-16T06:22:09.976Z,3.40
2024-01-16T06:24:37.760Z,3.40
2024-01-16T06:27:07.393Z,3.40
2024-01-16T06:29:35.724Z,3.40
2024-01-16T06:32:03.014Z,3.40
2024-01-16T06:34:30.176Z,3.40
2024-01-16T06:36:57.641Z,3.20
2024-01-16T06:39:24.518Z,3.30
2024-01-16T06:41:51.685Z,3.30
2024-01-16T06:44:20.003Z,3.20
2024-01-16T06:46:47.162Z,3.20
2024-01-16T06:49:14.103Z,3.20
2024-01-16T06:51:40.957Z,3.10
2024-01-16T06:54:07.988Z,3.00
2024-01-16T06:56:34.928Z,3.00
2024-01-16T06:59:01.854Z,2.90
2024-01-16T07:01:28.877Z,2.90
2024-01-16T07:03:55.882Z,2.80
2024-01-16T07:06:23.107Z,2.80
2024-01-16T07:08:50.278Z,2.70
2024-01-16T07:11:17.229Z,2.70
2024-01-16T07:13:44.885Z,3.10
2024-01-16T07:16:12.736Z,2.70
2024-01-16T07:18:40.794Z,2.60
2024-01-16T07:21:22.052Z,2.60
2024-01-16T07:23:49.226Z,2.50
2024-01-16T07:26:17.602Z,2.50
2024-01-16T07:29:10.507Z,2.50
2024-01-16T07:31:37.875Z,2.80
2024-01-16T07:34:12.856Z,2.40
2024-01-16T07:36:39.800Z,2.80
2024-01-16T07:39:06.810Z,2.40
2024-01-16T07:41:33.822Z,2.30
2024-01-16T07:44:00.775Z,2.00
2024-01-16T07:46:27.772Z,2.30
2024-01-16T07:48:54.847Z,2.30
2024-01-16T07:51:22.349Z,2.30
2024-01-16T07:53:51.568Z,2.30
2024-01-16T07:56:18.573Z,2.30
2024-01-16T07:58:45.696Z,2.70
2024-01-16T08:01:12.645Z,2.50
2024-01-16T08:04:05.667Z,2.30
2024-01-16T08:06:33.137Z,2.80
2024-01-16T08:09:00.232Z,2.30
2024-01-16T08:11:27.415Z,2.30
2024-01-16T08:13:54.504Z,2.30
2024-01-16T08:16:21.969Z,2.40
2024-01-16T08:18:49.049Z,2.30
2024-01-16T08:21:16.073Z,2.40
2024-01-16T08:23:43.226Z,2.90
2024-01-16T08:26:11.755Z,2.40
2024-01-16T08:28:38.934Z,2.70
2024-01-16T08:31:06.206Z,2.80
2024-01-16T08:33:39.969Z,2.40
2024-01-16T08:36:10.730Z,3.00
2024-01-16T08:38:37.822Z,2.60
2024-01-16T08:41:07.460Z,2.90
2024-01-16T08:43:35.156Z,3.10
2024-01-16T08:46:02.345Z,3.80
2024-01-16T08:48:29.850Z,3.40
2024-01-16T08:50:57.266Z,3.50
2024-01-16T08:53:24.620Z,3.70
2024-01-16T08:55:51.884Z,3.90
2024-01-16T08:58:18.699Z,4.20
2024-01-16T09:00:45.535Z,4.40
2024-01-16T09:03:13.122Z,4.70
2024-01-16T09:05:40.589Z,5.00
2024-01-16T09:08:10.318Z,5.30
2024-01-16T09:10:38.771Z,5.50
2024-01-16T09:13:05.617Z,5.60
2024-01-16T09:15:32.506Z,5.80
2024-01-16T09:17:59.533Z,5.90
2024-01-16T09:20:26.486Z,5.90
2024-01-16T09:22:53.408Z,6.00
2024-01-16T09:25:21.023Z,6.00
2024-01-16T09:27:48.142Z,6.10
2024-01-16T09:30:15.300Z,6.00
2024-01-16T09:32:43.703Z,6.00
2024-01-16T09:35:11.719Z,6.00
2024-01-16T09:37:40.853Z,5.90
2024-01-16T09:40:08.694Z,6.00
2024-01-16T09:42:35.614Z,5.90
2024-01-16T09:45:05.897Z,6.00
2024-01-16T09:47:33.642Z,6.00
2024-01-16T09:50:03.942Z,6.00
2024-01-16T09:52:31.698Z,6.10
2024-01-16T09:55:00.057Z,6.10
2024-01-16T09:57:27.803Z,6.10
2024-01-16T09:59:56.519Z,6.20
2024-01-16T10:02:26.776Z,6.20
2024-01-16T10:04:54.180Z,6.10
2024-01-16T10:07:28.724Z,6.10
2024-01-16T10:09:58.959Z,6.10
2024-01-16T10:12:26.439Z,6.00
2024-01-16T10:14:55.048Z,6.00
2024-01-16T10:17:22.144Z,6.00
2024-01-16T10:19:51.030Z,6.00
2024-01-16T10:22:28.571Z,6.00
2024-01-16T10:25:04.222Z,6.10
2024-01-16T10:27:32.219Z,6.10
2024-01-16T10:29:59.781Z,6.20
2024-01-16T10:32:39.872Z,6.20
2024-01-16T10:35:12.400Z,6.30
2024-01-16T10:37:49.674Z,6.40
2024-01-16T10:40:23.795Z,6.60
2024-01-16T10:43:00.852Z,6.90
2024-01-16T10:45:28.262Z,7.20
2024-01-16T10:48:06.244Z,7.70
2024-01-16T10:50:34.742Z,8.20
2024-01-16T10:53:05.031Z,8.70
2024-01-16T10:55:36.108Z,9.20
2024-01-16T10:58:06.091Z,9.70
2024-01-16T11:00:37.534Z,10.20
2024-01-16T11:03:12.196Z,10.60
2024-01-16T11:05:41.095Z,10.90
2024-01-16T11:08:11.068Z,11.10
2024-01-16T11:10:38.731Z,11.20
2024-01-16T11:13:06.843Z,11.30
2024-01-16T11:15:34.148Z,11.40
2024-01-16T11:18:02.713Z,11.50
2024-01-16T11:20:54.707Z,11.70
2024-01-16T11:23:18.100Z,12.00
2024-01-16T11:25:44.950Z,12.10
2024-01-16T11:28:14.386Z,12.30
2024-01-16T11:30:42.469Z,12.60
2024-01-16T11:33:34.906Z,12.80
2024-01-16T11:36:02.697Z,13.10
2024-01-16T11:38:33.665Z,13.40
2024-01-16T11:41:00.650Z,13.60
2024-01-16T11:43:34.294Z,13.80
2024-01-16T11:46:08.692Z,13.90
2024-01-16T11:48:36.705Z,14.00
2024-01-16T11:51:24.835Z,14.10
2024-01-16T11:53:52.407Z,14.10
2024-01-16T11:56:43.929Z,14.10
2024-01-16T11:59:26.639Z,14.00
2024-01-16T12:01:58.051Z,13.90
2024-01-16T12:04:24.977Z,13.70
2024-01-16T12:06:59.871Z,13.60
2024-01-16T12:09:28.824Z,13.30
2024-01-16T12:12:02.405Z,13.10
2024-01-16T12:14:30.219Z,12.90
2024-01-16T12:17:11.892Z,12.70
2024-01-16T12:19:41.363Z,12.50
2024-01-16T12:22:10.776Z,12.40
2024-01-16T12:24:41.022Z,12.20
2024-01-16T12:27:09.339Z,12.00
2024-01-16T12:29:37.027Z,11.80
2024-01-16T12:32:08.415Z,11.60
2024-01-16T12:34:36.350Z,11.30
2024-01-16T12:37:07.900Z,11.10
2024-01-16T12:39:36.401Z,10.80
2024-01-16T12:42:04.132Z,10.50
2024-01-16T12:44:31.510Z,10.30
2024-01-16T12:46:59.069Z,10.10
2024-01-16T12:49:26.423Z,9.70
2024-01-16T12:52:21.650Z,9.50
2024-01-16T12:54:50.339Z,9.20
2024-01-16T12:57:21.440Z,9.00
2024-01-16T12:59:50.343Z,8.80
2024-01-16T13:02:25.682Z,8.60
2024-01-16T13:05:00.969Z,8.40
2024-01-16T13:07:28.753Z,8.10
2024-01-16T13:10:13.249Z,8.40
2024-01-16T13:12:40.469Z,7.70
2024-01-16T13:15:07.887Z,7.60
2024-01-16T13:17:37.682Z,7.40
2024-01-16T13:20:08.866Z,7.20
2024-01-16T13:22:43.439Z,7.00
2024-01-16T13:25:13.297Z,6.90
2024-01-16T13:27:40.136Z,6.80
2024-01-16T13:30:07.969Z,6.60
2024-01-16T13:32:37.938Z,6.50
2024-01-16T13:35:09.085Z,6.40
2024-01-16T13:37:38.639Z,6.30
2024-01-16T13:40:16.770Z,6.20
2024-01-16T13:42:44.062Z,6.00
2024-01-16T13:45:14.373Z,5.70
2024-01-16T13:47:42.213Z,5.80
2024-01-16T13:50:09.786Z,5.80
2024-01-16T13:52:43.087Z,5.70
2024-01-16T13:55:10.303Z,5.60
2024-01-16T13:57:37.615Z,5.60
2024-01-16T14:00:06.016Z,5.50
2024-01-16T14:02:39.846Z,5.40
2024-01-16T14:05:09.052Z,5.30
2024-01-16T14:07:39.877Z,5.20
2024-01-16T14:10:11.214Z,5.20
2024-01-16T14:12:38.153Z,5.10
2024-01-16T14:15:12.365Z,5.00
2024-01-16T14:17:39.534Z,5.00
2024-01-16T14:20:06.979Z,4.90
2024-01-16T14:22:33.955Z,4.90
2024-01-16T14:25:00.812Z,4.80
2024-01-16T14:27:27.596Z,4.80
2024-01-16T14:29:55.327Z,4.70
2024-01-16T14:32:22.636Z,4.70
2024-01-16T14:34:49.496Z,4.60
2024-01-16T14:37:17.922Z,4.60
2024-01-16T14:39:45.458Z,4.50
2024-01-16T14:42:15.541Z,4.60
2024-01-16T14:45:15.269Z,4.50
2024-01-16T14:48:22.270Z,4.40
2024-01-16T14:50:53.324Z,4.30
2024-01-16T14:53:20.505Z,4.10
2024-01-16T14:56:14.275Z,4.30
2024-01-16T14:58:59.041Z,4.80
2024-01-16T15:13:53.933Z,3.90
2024-01-16T15:16:37.387Z,4.30
2024-01-16T15:19:13.343Z,3.90
2024-01-16T15:21:40.533Z,3.80
2024-01-16T15:24:07.847Z,3.80
2024-01-16T15:26:34.806Z,3.80
2024-01-16T15:29:01.799Z,3.80
2024-01-16T15:31:29.616Z,3.70
2024-01-16T15:34:00.118Z,3.70
2024-01-16T15:40:20.389Z,3.70
2024-01-16T15:43:16.788Z,3.60
2024-01-16T15:45:43.926Z,3.60
2024-01-16T15:48:11.006Z,3.60
2024-01-16T15:50:39.204Z,3.60
2024-01-16T15:53:09.780Z,3.60
2024-01-16T15:55:53.180Z,3.50
2024-01-16T15:58:22.833Z,3.50
2024-01-16T16:00:49.838Z,3.30
2024-01-16T16:03:16.809Z,3.50
2024-01-16T16:05:44.243Z,3.40
2024-01-16T16:08:11.882Z,3.40
2024-01-16T16:13:48.610Z,3.40
2024-01-16T16:16:15.835Z,3.30
2024-01-16T16:18:42.912Z,3.80
2024-01-16T16:21:10.585Z,3.20
2024-01-16T16:23:37.583Z,3.20
2024-01-16T16:26:06.437Z,3.10
2024-01-16T16:28:33.367Z,3.10
2024-01-16T16:31:00.812Z,3.10
2024-01-16T16:33:27.976Z,3.00
2024-01-16T16:35:54.933Z,3.00
2024-01-16T16:38:21.859Z,3.00
2024-01-16T16:40:48.779Z,3.00
2024-01-16T16:43:16.049Z,2.90
2024-01-16T16:45:44.301Z,2.90
2024-01-16T16:48:11.332Z,2.90
2024-01-16T16:50:38.276Z,2.90
2024-01-16T16:53:07.326Z,2.80
2024-01-16T16:55:34.209Z,2.80
2024-01-16T16:58:01.100Z,2.80
2024-01-16T17:00:28.066Z,2.70
2024-01-16T17:02:54.980Z,2.70
2024-01-16T17:05:22.074Z,2.70
2024-01-16T17:07:49.047Z,2.60
2024-01-16T17:10:16.697Z,2.60
2024-01-16T17:12:44.402Z,2.60
2024-01-16T17:15:11.299Z,2.50
2024-01-16T17:17:38.411Z,2.50
2024-01-16T17:20:08.137Z,2.40
2024-01-16T17:22:35.134Z,2.40
2024-01-16T17:25:02.155Z,2.30
2024-01-16T17:27:29.587Z,2.30
2024-01-16T17:29:56.733Z,2.20
2024-01-16T17:32:24.474Z,2.10
2024-01-16T17:34:51.830Z,2.30
2024-01-16T17:37:18.978Z,2.50
2024-01-16T17:39:47.231Z,1.90
2024-01-16T17:42:14.309Z,1.90
2024-01-16T17:47:50.108Z,2.20
2024-01-16T17:50:38.811Z,2.10
2024-01-16T17:53:19.567Z,2.20
2024-01-16T17:55:47.570Z,2.00
2024-01-16T17:58:18.753Z,2.00
2024-01-16T18:00:53.011Z,2.10
2024-01-16T18:04:02.569Z,1.60
2024-01-16T18:13:16.102Z,1.40
2024-01-16T18:15:43.016Z,1.40
2024-01-16T18:18:14.232Z,1.40
2024-01-16T18:20:42.576Z,1.40
2024-01-16T18:23:10.830Z,1.40
2024-01-16T18:25:37.778Z,1.40
2024-01-16T18:28:05.291Z,1.40
2024-01-16T18:30:34.258Z,1.40
2024-01-16T18:33:02.227Z,1.30
2024-01-16T18:35:29.727Z,1.30
2024-01-16T18:37:56.684Z,1.40
2024-01-16T18:40:24.579Z,1.30
2024-01-16T18:42:51.612Z,1.30
2024-01-16T18:45:19.217Z,1.30
2024-01-16T18:47:49.129Z,1.30
2024-01-16T18:50:18.612Z,1.30
2024-01-16T18:52:46.643Z,1.30
2024-01-16T18:55:14.618Z,1.30
2024-01-16T18:57:42.490Z,1.30
2024-01-16T19:00:14.400Z,1.30
2024-01-16T19:02:43.222Z,1.30
2024-01-16T19:05:14.670Z,1.30
2024-01-16T19:07:45.841Z,1.30
2024-01-16T19:10:14.487Z,1.30
2024-01-16T19:12:48.980Z,1.20
2024-01-16T19:15:21.099Z,1.30
2024-01-16T19:17:49.630Z,1.30
2024-01-16T19:20:17.180Z,1.20
2024-01-16T19:22:45.938Z,1.20
2024-01-16T19:25:22.806Z,1.20
2024-01-16T19:27:52.537Z,1.20
2024-01-16T19:30:22.716Z,1.60
2024-01-16T19:33:01.458Z,1.20
2024-01-16T19:35:35.911Z,1.20
2024-01-16T19:38:20.175Z,1.20
2024-01-16T19:41:00.625Z,1.20
2024-01-16T19:43:30.190Z,1.60
2024-01-16T19:46:09.513Z,1.20
2024-01-16T19:48:49.089Z,1.00
2024-01-16T19:51:21.681Z,1.40
2024-01-16T19:53:52.571Z,1.10
2024-01-16T19:56:32.146Z,0.80
2024-01-16T19:59:14.935Z,0.80
2024-01-16T20:01:46.039Z,1.00
2024-01-16T20:04:23.820Z,1.10
2024-01-16T20:06:58.781Z,1.10
2024-01-16T20:09:34.723Z,1.10
2024-01-16T20:12:14.557Z,0.60
2024-01-16T20:14:50.643Z,1.20
2024-01-16T20:20:13.602Z,1.00
2024-01-16T20:23:28.107Z,1.00
2024-01-16T20:25:56.683Z,1.00
2024-01-16T20:28:24.395Z,1.00
2024-01-16T20:30:54.700Z,0.90
2024-01-16T20:33:26.527Z,1.00
2024-01-16T20:35:55.488Z,1.00
2024-01-16T20:38:25.994Z,0.90
2024-01-16T20:40:58.090Z,0.90
2024-01-16T20:43:26.985Z,0.80
2024-01-16T20:45:55.874Z,0.90
2024-01-16T20:48:23.122Z,0.80
2024-01-16T20:50:50.237Z,0.80
2024-01-16T20:53:17.544Z,0.80
2024-01-16T20:55:44.584Z,1.40
2024-01-16T20:58:11.680Z,0.70
2024-01-16T21:00:38.933Z,0.70
2024-01-16T21:03:09.975Z,0.70
2024-01-16T21:05:37.562Z,0.70
2024-01-16T21:08:06.013Z,0.60
2024-01-16T21:10:33.806Z,0.60
2024-01-16T21:13:00.999Z,0.60
2024-01-16T21:15:27.971Z,0.80
2024-01-16T21:17:54.984Z,0.50
2024-01-16T21:20:21.883Z,0.90
2024-01-16T21:22:48.791Z,0.50
2024-01-16T21:25:15.941Z,0.50
2024-01-16T21:27:46.380Z,0.50
2024-01-16T21:30:13.612Z,0.50
2024-01-16T21:32:40.606Z,0.40
2024-01-16T21:35:10.454Z,0.40
2024-01-16T21:37:38.277Z,0.40
2024-01-16T21:40:07.441Z,0.40
2024-01-16T21:42:35.747Z,0.40
2024-01-16T21:45:03.386Z,0.30
2024-01-16T21:47:31.688Z,0.30
2024-01-16T21:49:59.990Z,0.30
2024-01-16T21:52:29.376Z,0.30
2024-01-16T21:54:56.324Z,0.20
2024-01-16T21:57:23.713Z,0.20
2024-01-16T21:59:50.916Z,0.20
2024-01-16T22:02:18.544Z,0.20
2024-01-16T22:04:45.887Z,0.10
2024-01-16T22:07:12.799Z,0.10
2024-01-16T22:09:39.700Z,0.10
2024-01-16T22:12:07.594Z,0.10
2024-01-16T22:14:34.622Z,0.00
2024-01-16T22:17:02.344Z,0.00
2024-01-16T22:19:29.248Z,0.00
2024-01-16T22:21:56.398Z,0.00
2024-01-16T22:24:23.566Z,0.00
2024-01-16T22:26:50.490Z,0.00
2024-01-16T22:29:17.381Z,-0.10
2024-01-16T22:31:45.076Z,-0.10
2024-01-16T22:34:12.233Z,-0.10
2024-01-16T22:36:40.782Z,-0.10
2024-01-16T22:39:14.548Z,-0.20
2024-01-16T22:41:46.306Z,-0.10
2024-01-16T22:44:14.058Z,-0.20
2024-01-16T22:46:41.030Z,-0.20
2024-01-16T22:49:08.921Z,-0.20
2024-01-16T22:51:39.003Z,-0.30
2024-01-16T22:54:06.462Z,-0.30
2024-01-16T22:56:33.836Z,-0.30
2024-01-16T22:59:03.997Z,-0.30
2024-01-16T23:01:31.971Z,-0.30
2024-01-16T23:03:59.217Z,-0.40
2024-01-16T23:06:29.878Z,-0.50
2024-01-16T23:08:57.857Z,-0.50
2024-01-16T23:11:25.829Z,-0.50
2024-01-16T23:13:53.661Z,-0.50
2024-01-16T23:16:20.565Z,-0.50
2024-01-16T23:18:49.011Z,-0.60
2024-01-16T23:21:17.972Z,-0.60
2024-01-16T23:23:45.415Z,-0.70
2024-01-16T23:26:12.982Z,-0.70
2024-01-16T23:28:40.367Z,-0.70
2024-01-16T23:31:08.729Z,-0.80
2024-01-16T23:33:35.867Z,-0.80
2024-01-16T23:36:03.060Z,-0.90
2024-01-16T23:38:30.100Z,-0.90
2024-01-16T23:40:58.796Z,-1.00
2024-01-16T23:43:27.173Z,-1.00
2024-01-16T23:45:55.472Z,-1.00
2024-01-16T23:48:22.492Z,-1.00
2024-01-16T23:50:49.803Z,-1.00
2024-01-16T23:53:16.701Z,-1.10
2024-01-16T23:55:43.615Z,-1.10
2024-01-16T23:58:10.909Z,-1.10
